createdAt,value
2018-07-19T00:01:24.571Z,67.16
2018-07-19T00:03:56.446Z,67.13
2018-07-19T00:06:31.244Z,67.17
2018-07-19T00:09:04.816Z,67.22
2018-07-19T00:11:34.847Z,68.08
2018-07-19T00:14:08.066Z,69.04
2018-07-19T00:16:42.655Z,69.65
2018-07-19T00:19:14.218Z,69.76
2018-07-19T00:21:44.439Z,69.78
2018-07-19T00:24:15.912Z,69.88
2018-07-19T00:26:47.562Z,69.86
2018-07-19T00:29:22.244Z,70.02
2018-07-19T00:31:55.651Z,70.02
2018-07-19T00:34:28.539Z,69.71
2018-07-19T00:37:01.559Z,70.13
2018-07-19T00:39:34.042Z,69.60
2018-07-19T00:42:05.484Z,69.68
2018-07-19T00:44:38.679Z,69.94
2018-07-19T00:47:10.672Z,70.16
2018-07-19T00:49:40.717Z,69.72
2018-07-19T00:52:13.825Z,69.71
2018-07-19T00:54:45.302Z,69.97
2018-07-19T00:57:15.370Z,70.06
2018-07-19T00:59:49.222Z,70.25
2018-07-19T01:02:22.421Z,69.92
2018-07-19T01:04:56.305Z,70.17
2018-07-19T01:07:29.418Z,69.80
2018-07-19T01:10:04.340Z,69.70
2018-07-19T01:12:37.592Z,69.86
2018-07-19T01:15:11.473Z,69.68
2018-07-19T01:17:42.949Z,69.59
2018-07-19T01:20:12.961Z,69.44
2018-07-19T01:22:44.791Z,69.38
2018-07-19T01:25:18.126Z,69.74
2018-07-19T01:27:48.149Z,69.92
2018-07-19T01:30:22.829Z,70.22
2018-07-19T01:32:54.350Z,70.41
2018-07-19T01:35:27.381Z,70.37
2018-07-19T01:38:00.407Z,70.38
2018-07-19T01:40:32.645Z,70.54
2018-07-19T01:43:07.358Z,70.46
2018-07-19T01:45:38.839Z,70.64
2018-07-19T01:48:12.148Z,70.94
2018-07-19T01:50:43.777Z,71.29
2018-07-19T01:53:15.218Z,70.74
2018-07-19T01:55:48.304Z,70.44
2018-07-19T01:58:21.366Z,70.65
2018-07-19T02:00:52.830Z,71.18
2018-07-19T02:03:25.861Z,71.23
2018-07-19T02:05:59.166Z,71.32
2018-07-19T02:08:30.887Z,71.02
2018-07-19T02:11:04.220Z,71.17
2018-07-19T02:13:38.989Z,71.31
2018-07-19T02:16:12.177Z,71.25
2018-07-19T02:18:47.192Z,71.33
2018-07-19T02:21:20.369Z,70.90
2018-07-19T02:23:52.028Z,70.94
2018-07-19T02:26:23.578Z,70.86
2018-07-19T02:28:58.205Z,70.85
2018-07-19T02:31:33.011Z,70.57
2018-07-19T02:34:06.608Z,70.18
2018-07-19T02:36:39.620Z,70.07
2018-07-19T02:39:15.226Z,70.11
2018-07-19T02:41:47.049Z,70.81
2018-07-19T02:44:20.219Z,71.27
2018-07-19T02:46:53.658Z,71.35
2018-07-19T02:49:26.808Z,71.19
2018-07-19T02:52:01.877Z,71.22
2018-07-19T02:54:36.307Z,71.34
2018-07-19T02:57:07.921Z,71.24
2018-07-19T02:59:41.058Z,71.59
2018-07-19T03:02:11.996Z,71.85
2018-07-19T03:04:47.105Z,71.32
2018-07-19T03:07:21.820Z,71.26
2018-07-19T03:09:55.015Z,72.31
2018-07-19T03:12:26.892Z,71.84
2018-07-19T03:14:59.968Z,71.87
2018-07-19T03:17:34.647Z,71.88
2018-07-19T03:20:04.028Z,72.31
2018-07-19T03:22:37.552Z,72.46
2018-07-19T03:25:10.541Z,72.01
2018-07-19T03:27:45.232Z,71.80
2018-07-19T03:30:18.275Z,71.90
2018-07-19T03:32:50.126Z,71.66
2018-07-19T03:35:22.310Z,72.13
2018-07-19T03:37:56.305Z,72.27
2018-07-19T03:40:29.615Z,71.78
2018-07-19T03:43:03.498Z,72.15
2018-07-19T03:45:38.098Z,72.01
2018-07-19T03:48:11.497Z,72.29
2018-07-19T03:50:43.222Z,72.06
2018-07-19T03:53:18.065Z,72.37
2018-07-19T03:55:52.840Z,72.63
2018-07-19T03:58:25.930Z,72.67
2018-07-19T04:00:58.988Z,73.02
2018-07-19T04:03:32.358Z,73.44
2018-07-19T04:06:04.072Z,72.69
2018-07-19T04:08:36.850Z,72.79
2018-07-19T04:11:09.821Z,72.97
2018-07-19T04:13:42.840Z,74.91
2018-07-19T04:16:17.200Z,73.66
2018-07-19T04:18:47.533Z,73.04
2018-07-19T04:21:18.079Z,72.62
2018-07-19T04:23:47.569Z,73.13
2018-07-19T04:26:22.143Z,74.18
2018-07-19T04:28:55.151Z,74.00
2018-07-19T04:31:29.897Z,74.69
2018-07-19T04:34:02.967Z,75.00
2018-07-19T04:36:36.021Z,74.84
2018-07-19T04:39:12.069Z,74.81
2018-07-19T04:41:45.329Z,75.09
2018-07-19T04:44:18.405Z,73.68
2018-07-19T04:46:54.995Z,73.56
2018-07-19T04:49:28.905Z,72.89
2018-07-19T04:52:02.833Z,71.75
2018-07-19T04:54:36.085Z,72.01
2018-07-19T04:57:08.493Z,71.10
2018-07-19T04:59:40.605Z,71.88
2018-07-19T05:02:13.926Z,70.34
2018-07-19T05:04:44.097Z,70.14
2018-07-19T05:07:17.178Z,69.84
2018-07-19T05:09:49.386Z,70.33
2018-07-19T05:12:22.711Z,68.87
2018-07-19T05:14:55.760Z,65.57
2018-07-19T05:17:28.781Z,64.49
2018-07-19T05:20:02.257Z,63.77
2018-07-19T05:22:35.362Z,63.60
2018-07-19T05:25:08.959Z,64.40
2018-07-19T05:27:44.577Z,63.68
2018-07-19T05:30:17.989Z,64.33
2018-07-19T05:32:51.533Z,64.93
2018-07-19T05:35:23.881Z,65.91
2018-07-19T05:37:57.039Z,64.88
2018-07-19T05:40:30.416Z,62.94
2018-07-19T05:43:01.960Z,62.19
2018-07-19T05:45:33.474Z,62.85
2018-07-19T05:48:04.963Z,63.16
2018-07-19T05:50:38.298Z,60.55
2018-07-19T05:53:09.800Z,59.84
2018-07-19T05:55:42.922Z,61.89
2018-07-19T05:58:16.071Z,61.18
2018-07-19T06:00:49.001Z,62.07
2018-07-19T06:03:20.636Z,61.10
2018-07-19T06:05:52.235Z,60.43
2018-07-19T06:08:25.350Z,59.44
2018-07-19T06:10:57.095Z,60.30
2018-07-19T06:13:30.109Z,59.08
2018-07-19T06:16:03.323Z,57.20
2018-07-19T06:18:36.748Z,56.83
2018-07-19T06:21:11.403Z,56.81
2018-07-19T06:23:44.837Z,54.13
2018-07-19T06:26:16.724Z,52.38
2018-07-19T06:28:50.170Z,51.08
2018-07-19T06:31:23.206Z,49.45
2018-07-19T06:33:57.818Z,49.79
2018-07-19T06:36:29.262Z,45.87
2018-07-19T06:38:59.272Z,46.14
2018-07-19T06:41:30.728Z,45.24
2018-07-19T06:44:02.378Z,46.31
2018-07-19T06:46:36.980Z,43.26
2018-07-19T06:49:10.268Z,42.56
2018-07-19T06:51:41.762Z,42.65
2018-07-19T06:54:16.134Z,41.07
2018-07-19T06:56:49.081Z,41.45
2018-07-19T06:59:19.687Z,42.75
2018-07-19T07:01:49.706Z,45.96
2018-07-19T07:04:21.258Z,45.84
2018-07-19T07:06:55.883Z,46.55
2018-07-19T07:09:28.098Z,48.05
2018-07-19T07:12:01.137Z,47.57
2018-07-19T07:14:34.225Z,44.50
2018-07-19T07:17:03.880Z,43.93
2018-07-19T07:19:37.414Z,42.82
2018-07-19T07:22:07.248Z,42.40
2018-07-19T07:24:40.167Z,40.91
2018-07-19T07:27:13.000Z,40.39
2018-07-19T07:29:46.068Z,41.70
2018-07-19T07:32:17.260Z,40.09
2018-07-19T07:34:48.749Z,36.03
2018-07-19T07:37:21.663Z,36.01
2018-07-19T07:39:54.617Z,34.95
2018-07-19T07:42:27.553Z,35.54
2018-07-19T07:45:02.005Z,37.14
2018-07-19T07:47:33.518Z,33.88
2018-07-19T07:50:06.454Z,35.53
2018-07-19T07:52:39.642Z,34.66
2018-07-19T07:55:14.422Z,33.43
2018-07-19T07:57:47.279Z,35.06
2018-07-19T08:00:18.748Z,35.81
2018-07-19T08:02:53.483Z,32.27
2018-07-19T08:05:25.315Z,34.48
2018-07-19T08:07:58.322Z,36.07
2018-07-19T08:10:31.356Z,34.50
2018-07-19T08:13:01.450Z,33.79
2018-07-19T08:15:33.363Z,32.49
2018-07-19T08:18:04.788Z,31.63
2018-07-19T08:20:37.962Z,32.60
2018-07-19T08:23:08.546Z,30.84
2018-07-19T08:25:41.562Z,32.67
2018-07-19T08:28:16.131Z,32.27
2018-07-19T08:30:45.367Z,32.88
2018-07-19T08:33:18.329Z,34.93
2018-07-19T08:35:51.231Z,35.84
2018-07-19T08:38:22.625Z,35.51
2018-07-19T08:40:55.637Z,33.24
2018-07-19T08:43:28.615Z,31.23
2018-07-19T08:46:00.129Z,34.84
2018-07-19T08:48:33.056Z,33.31
2018-07-19T08:51:05.898Z,32.56
2018-07-19T08:53:40.422Z,33.31
2018-07-19T08:56:13.557Z,32.87
2018-07-19T08:58:44.909Z,31.29
2018-07-19T09:01:19.405Z,31.80
2018-07-19T09:03:49.431Z,33.39
2018-07-19T09:06:23.859Z,34.16
2018-07-19T09:08:56.757Z,33.24
2018-07-19T09:11:28.532Z,35.25
2018-07-19T09:14:02.992Z,31.83
2018-07-19T09:16:37.362Z,33.08
2018-07-19T09:19:11.972Z,32.35
2018-07-19T09:21:43.412Z,33.24
2018-07-19T09:24:16.271Z,34.06
2018-07-19T09:26:46.693Z,31.24
2018-07-19T09:29:19.207Z,32.03
2018-07-19T09:31:51.008Z,36.35
2018-07-19T09:34:22.478Z,33.97
2018-07-19T09:36:55.382Z,31.84
2018-07-19T09:39:28.374Z,31.61
2018-07-19T09:42:00.733Z,34.87
2018-07-19T09:44:34.172Z,30.48
2018-07-19T09:47:06.494Z,30.34
2018-07-19T09:49:41.586Z,31.45
2018-07-19T09:52:16.608Z,30.55
2018-07-19T09:55:03.643Z,28.87
2018-07-19T09:57:37.204Z,30.01
2018-07-19T10:00:09.181Z,27.99
2018-07-19T10:02:40.798Z,29.42
2018-07-19T10:05:15.166Z,30.19
2018-07-19T10:07:45.905Z,26.65
2018-07-19T10:10:17.725Z,27.42
2018-07-19T10:12:50.931Z,28.88
2018-07-19T10:15:21.733Z,30.46
2018-07-19T10:17:55.552Z,30.81
2018-07-19T10:20:27.406Z,29.69
2018-07-19T10:23:00.732Z,28.37
2018-07-19T10:25:33.946Z,28.96
2018-07-19T10:28:07.512Z,28.21
2018-07-19T10:30:39.500Z,27.28
2018-07-19T10:33:14.706Z,28.11
2018-07-19T10:35:49.690Z,28.12
2018-07-19T10:38:23.130Z,27.07
2018-07-19T10:40:55.582Z,26.81
2018-07-19T10:43:28.113Z,25.94
2018-07-19T10:46:02.150Z,26.48
2018-07-19T10:48:36.874Z,26.77
2018-07-19T10:51:10.068Z,26.32
2018-07-19T10:53:42.907Z,25.35
2018-07-19T10:56:16.036Z,26.59
2018-07-19T10:58:49.544Z,26.56
2018-07-19T11:01:19.711Z,25.61
2018-07-19T11:03:54.608Z,25.54
2018-07-19T11:06:29.374Z,27.25
2018-07-19T11:09:02.057Z,27.23
2018-07-19T11:11:35.236Z,29.11
2018-07-19T11:14:05.935Z,27.84
2018-07-19T11:16:39.187Z,29.04
2018-07-19T11:19:12.403Z,28.87
2018-07-19T11:21:45.865Z,27.45
2018-07-19T11:24:19.335Z,26.76
2018-07-19T11:26:52.374Z,25.36
2018-07-19T11:29:25.793Z,26.62
2018-07-19T11:31:59.055Z,26.55
2018-07-19T11:34:31.398Z,25.78
2018-07-19T11:37:03.696Z,26.60
2018-07-19T11:39:36.934Z,27.69
2018-07-19T11:42:12.107Z,28.87
2018-07-19T11:44:46.918Z,32.59
2018-07-19T11:47:19.663Z,28.79
2018-07-19T11:49:54.627Z,30.91
2018-07-19T11:52:27.963Z,31.26
2018-07-19T11:55:03.023Z,32.67
2018-07-19T11:57:35.328Z,31.52
2018-07-19T12:00:10.981Z,30.81
2018-07-19T12:02:45.922Z,32.59
2018-07-19T12:05:17.880Z,30.88
2018-07-19T12:07:51.469Z,32.16
2018-07-19T12:10:26.306Z,33.02
2018-07-19T12:12:59.848Z,34.40
2018-07-19T12:15:33.546Z,29.42
2018-07-19T12:18:08.559Z,33.09
2018-07-19T12:20:41.987Z,29.67
2018-07-19T12:23:13.774Z,29.56
2018-07-19T12:25:47.197Z,28.85
2018-07-19T12:28:22.206Z,31.15
2018-07-19T12:30:53.777Z,28.91
2018-07-19T12:33:25.591Z,28.63
2018-07-19T12:35:56.774Z,28.64
2018-07-19T12:38:31.175Z,29.03
2018-07-19T12:41:02.957Z,29.94
2018-07-19T12:43:36.370Z,29.07
2018-07-19T12:46:07.620Z,28.60
2018-07-19T12:48:40.826Z,28.99
2018-07-19T12:51:15.627Z,30.75
2018-07-19T12:53:49.026Z,27.48
2018-07-19T12:56:19.276Z,29.47
2018-07-19T12:58:51.208Z,28.58
2018-07-19T13:01:24.663Z,30.04
2018-07-19T13:03:59.683Z,29.98
2018-07-19T13:06:32.980Z,29.86
2018-07-19T13:09:06.780Z,30.98
2018-07-19T13:11:37.473Z,30.38
2018-07-19T13:14:09.755Z,31.89
2018-07-19T13:16:40.613Z,33.14
2018-07-19T13:19:13.003Z,33.01
2018-07-19T13:21:43.267Z,32.94
2018-07-19T13:24:16.679Z,32.92
2018-07-19T13:26:48.532Z,31.33
2018-07-19T13:29:21.928Z,32.06
2018-07-19T13:31:53.888Z,31.68
2018-07-19T13:34:28.632Z,31.45
2018-07-19T13:37:02.119Z,29.87
2018-07-19T13:39:37.132Z,29.66
2018-07-19T13:42:10.687Z,28.85
2018-07-19T13:44:44.172Z,29.65
2018-07-19T13:47:16.109Z,30.82
2018-07-19T13:49:49.283Z,30.34
2018-07-19T13:52:25.637Z,30.43
2018-07-19T13:54:56.284Z,30.04
2018-07-19T13:57:29.636Z,30.41
2018-07-19T14:00:01.628Z,31.00
2018-07-19T14:02:33.507Z,29.57
2018-07-19T14:05:06.322Z,29.96
2018-07-19T14:07:39.745Z,29.54
2018-07-19T14:10:13.196Z,30.54
2018-07-19T14:12:46.340Z,30.29
2018-07-19T14:15:20.256Z,30.85
2018-07-19T14:17:50.405Z,29.50
2018-07-19T14:20:21.760Z,30.31
2018-07-19T14:22:53.579Z,30.20
2018-07-19T14:25:26.977Z,29.96
2018-07-19T14:27:58.782Z,28.73
2018-07-19T14:30:32.427Z,29.28
2018-07-19T14:33:06.463Z,29.76
2018-07-19T14:35:44.611Z,32.84
2018-07-19T14:38:16.985Z,35.83
2018-07-19T14:40:50.790Z,35.07
2018-07-19T14:43:20.964Z,33.66
2018-07-19T14:45:53.283Z,33.22
2018-07-19T14:48:25.140Z,33.28
2018-07-19T14:50:56.015Z,33.06
2018-07-19T14:53:27.766Z,34.60
2018-07-19T14:56:00.948Z,34.27
2018-07-19T14:58:35.460Z,34.73
2018-07-19T15:01:07.135Z,35.61
2018-07-19T15:03:37.470Z,34.05
2018-07-19T15:06:12.423Z,34.80
2018-07-19T15:08:45.645Z,32.29
2018-07-19T15:11:19.016Z,35.48
2018-07-19T15:13:50.644Z,34.32
2018-07-19T15:16:21.059Z,35.25
2018-07-19T15:18:52.998Z,33.22
2018-07-19T15:21:23.321Z,33.25
2018-07-19T15:23:57.551Z,33.66
2018-07-19T15:26:30.155Z,32.56
2018-07-19T15:29:04.924Z,35.52
2018-07-19T15:31:38.273Z,34.27
2018-07-19T15:34:10.011Z,34.50
2018-07-19T15:36:43.430Z,35.71
2018-07-19T15:39:15.961Z,32.74
2018-07-19T15:41:49.737Z,33.67
2018-07-19T15:44:24.807Z,33.65
2018-07-19T15:46:59.571Z,33.79
2018-07-19T15:49:32.040Z,35.11
2018-07-19T15:52:04.401Z,34.72
2018-07-19T15:54:38.296Z,35.47
2018-07-19T15:57:13.168Z,35.20
2018-07-19T15:59:45.974Z,36.03
2018-07-19T16:02:21.039Z,36.41
2018-07-19T16:04:53.128Z,37.57
2018-07-19T16:07:27.508Z,37.15
2018-07-19T16:09:59.483Z,35.43
2018-07-19T16:12:33.092Z,35.64
2018-07-19T16:15:04.901Z,34.90
2018-07-19T16:17:36.586Z,35.54
2018-07-19T16:20:08.664Z,35.72
2018-07-19T16:22:43.595Z,36.50
2018-07-19T16:25:18.932Z,37.59
2018-07-19T16:27:52.408Z,38.45
2018-07-19T16:30:24.388Z,37.46
2018-07-19T16:32:59.360Z,36.63
2018-07-19T16:35:31.775Z,36.02
2018-07-19T16:38:05.316Z,36.10
2018-07-19T16:40:37.810Z,35.24
2018-07-19T16:43:10.212Z,35.37
2018-07-19T16:45:41.980Z,32.44
2018-07-19T16:48:13.809Z,32.29
2018-07-19T16:50:47.474Z,33.54
2018-07-19T16:53:20.820Z,32.74
2018-07-19T16:55:54.101Z,32.54
2018-07-19T16:58:27.812Z,32.96
2018-07-19T17:00:59.515Z,32.51
2018-07-19T17:03:33.841Z,31.24
2018-07-19T17:06:06.841Z,30.15
2018-07-19T17:08:39.813Z,30.90
2018-07-19T17:11:14.761Z,30.75
2018-07-19T17:13:47.809Z,31.85
2018-07-19T17:16:20.961Z,31.45
2018-07-19T17:18:54.101Z,33.39
2018-07-19T17:21:27.021Z,32.67
2018-07-19T17:23:57.041Z,31.58
2018-07-19T17:26:30.017Z,32.56
2018-07-19T17:29:04.386Z,31.65
2018-07-19T17:31:34.464Z,33.08
2018-07-19T17:34:07.465Z,33.14
2018-07-19T17:36:39.929Z,32.23
2018-07-19T17:39:15.641Z,33.04
2018-07-19T17:41:47.074Z,32.71
2018-07-19T17:44:20.641Z,34.20
2018-07-19T17:46:53.658Z,34.09
2018-07-19T17:49:25.202Z,35.26
2018-07-19T17:51:58.142Z,34.06
2018-07-19T17:54:30.820Z,34.56
2018-07-19T17:57:02.282Z,34.76
2018-07-19T17:59:34.856Z,36.18
2018-07-19T18:02:06.386Z,36.23
2018-07-19T18:04:37.828Z,36.04
2018-07-19T18:07:07.902Z,36.33
2018-07-19T18:09:42.295Z,36.70
2018-07-19T18:12:14.407Z,36.29
2018-07-19T18:14:45.904Z,35.91
2018-07-19T18:17:16.508Z,36.12
2018-07-19T18:19:49.479Z,35.97
2018-07-19T18:22:21.147Z,36.96
2018-07-19T18:24:54.341Z,37.41
2018-07-19T18:27:27.329Z,37.09
2018-07-19T18:30:00.371Z,38.73
2018-07-19T18:32:31.859Z,38.30
2018-07-19T18:35:02.374Z,37.74
2018-07-19T18:37:34.557Z,37.99
2018-07-19T18:40:06.621Z,38.16
2018-07-19T18:42:39.900Z,38.42
2018-07-19T18:45:13.220Z,38.09
2018-07-19T18:47:44.890Z,38.74
2018-07-19T18:50:19.442Z,38.72
2018-07-19T18:52:53.921Z,39.15
2018-07-19T18:55:27.521Z,39.47
2018-07-19T18:58:00.579Z,40.27
2018-07-19T19:00:30.634Z,40.64
2018-07-19T19:03:05.118Z,41.33
2018-07-19T19:05:38.142Z,41.80
2018-07-19T19:08:11.282Z,42.29
2018-07-19T19:10:42.822Z,43.18
2018-07-19T19:13:15.777Z,44.33
2018-07-19T19:15:49.446Z,44.51
2018-07-19T19:18:20.986Z,45.33
2018-07-19T19:20:54.501Z,45.80
2018-07-19T19:23:27.553Z,46.58
2018-07-19T19:26:00.577Z,47.17
2018-07-19T19:28:31.991Z,47.71
2018-07-19T19:31:05.325Z,49.37
2018-07-19T19:33:38.238Z,50.66
2018-07-19T19:36:11.391Z,52.58
2018-07-19T19:38:42.852Z,54.03
2018-07-19T19:41:14.220Z,55.00
2018-07-19T19:43:48.649Z,56.04
2018-07-19T19:46:20.897Z,56.79
2018-07-19T19:48:52.598Z,57.74
2018-07-19T19:51:22.721Z,58.46
2018-07-19T19:53:54.266Z,58.79
2018-07-19T19:56:25.835Z,59.46
2018-07-19T19:58:59.105Z,59.64
2018-07-19T20:01:32.171Z,59.95
2018-07-19T20:04:03.622Z,59.97
2018-07-19T20:06:38.001Z,59.74
2018-07-19T20:09:13.489Z,60.33
2018-07-19T20:11:46.430Z,60.17
2018-07-19T20:14:17.524Z,60.68
2018-07-19T20:16:50.651Z,61.16
2018-07-19T20:19:23.729Z,61.45
2018-07-19T20:21:53.859Z,61.64
2018-07-19T20:24:25.400Z,61.69
2018-07-19T20:26:56.938Z,62.05
2018-07-19T20:29:27.577Z,62.45
2018-07-19T20:31:59.061Z,62.05
2018-07-19T20:34:32.276Z,62.30
2018-07-19T20:37:05.256Z,62.68
2018-07-19T20:39:38.308Z,63.07
2018-07-19T20:42:11.590Z,63.03
2018-07-19T20:44:44.597Z,63.11
2018-07-19T20:47:18.047Z,63.20
2018-07-19T20:49:51.671Z,63.17
2018-07-19T20:52:26.307Z,63.33
2018-07-19T20:54:58.238Z,63.26
2018-07-19T20:57:31.787Z,63.84
2018-07-19T21:00:05.128Z,63.43
2018-07-19T21:02:38.248Z,63.97
2018-07-19T21:05:09.940Z,63.92
2018-07-19T21:07:40.628Z,63.91
2018-07-19T21:10:15.292Z,64.04
2018-07-19T21:12:45.464Z,64.44
2018-07-19T21:15:19.628Z,64.29
2018-07-19T21:17:52.695Z,64.86
2018-07-19T21:20:25.949Z,65.08
2018-07-19T21:23:00.408Z,65.08
2018-07-19T21:25:33.460Z,65.13
2018-07-19T21:28:06.704Z,65.42
2018-07-19T21:30:38.274Z,65.76
2018-07-19T21:33:13.268Z,65.49
2018-07-19T21:35:44.793Z,65.83
2018-07-19T21:38:17.695Z,66.24
2018-07-19T21:40:51.191Z,66.05
2018-07-19T21:43:25.909Z,66.39
2018-07-19T21:45:58.863Z,66.55
2018-07-19T21:48:30.348Z,66.57
2018-07-19T21:51:04.964Z,67.03
2018-07-19T21:53:36.414Z,67.08
2018-07-19T21:56:09.491Z,67.62
2018-07-19T21:58:41.130Z,67.71
2018-07-19T22:01:14.802Z,67.77
2018-07-19T22:03:46.628Z,67.64
2018-07-19T22:06:18.154Z,68.05
2018-07-19T22:08:49.815Z,67.91
2018-07-19T22:11:20.528Z,68.45
2018-07-19T22:13:53.543Z,68.72
2018-07-19T22:16:25.244Z,69.22
2018-07-19T22:18:58.256Z,69.37
2018-07-19T22:21:31.618Z,69.33
2018-07-19T22:24:04.834Z,69.65
2018-07-19T22:26:36.355Z,69.60
2018-07-19T22:29:11.191Z,69.53
2018-07-19T22:31:44.212Z,69.72
2018-07-19T22:34:18.824Z,69.80
2018-07-19T22:36:51.793Z,70.15
2018-07-19T22:39:25.020Z,70.12
2018-07-19T22:41:58.218Z,69.97
2018-07-19T22:44:29.871Z,69.65
2018-07-19T22:47:02.122Z,69.76
2018-07-19T22:49:35.225Z,70.00
2018-07-19T22:52:08.289Z,70.07
2018-07-19T22:54:39.830Z,70.68
2018-07-19T22:57:11.473Z,70.50
2018-07-19T22:59:43.714Z,70.64
2018-07-19T23:02:15.428Z,71.00
2018-07-19T23:04:48.707Z,71.42
2018-07-19T23:07:23.147Z,71.84
2018-07-19T23:09:53.695Z,71.79
2018-07-19T23:12:26.309Z,71.71
2018-07-19T23:14:57.760Z,71.84
2018-07-19T23:17:29.873Z,71.84
2018-07-19T23:20:04.627Z,71.73
2018-07-19T23:22:35.836Z,71.83
2018-07-19T23:25:08.936Z,71.82
2018-07-19T23:27:42.024Z,71.84
2018-07-19T23:30:15.146Z,72.60
2018-07-19T23:32:46.709Z,71.31
2018-07-19T23:35:20.367Z,71.41
2018-07-19T23:37:54.130Z,72.71
2018-07-19T23:40:34.494Z,72.37
2018-07-19T23:43:15.571Z,72.43
2018-07-19T23:46:06.392Z,72.66
2018-07-19T23:48:39.661Z,73.03
2018-07-19T23:51:11.274Z,72.87
2018-07-19T23:53:42.987Z,72.37
2018-07-19T23:56:16.050Z,71.51
2018-07-19T23:58:49.579Z,71.56
